This is the latest recevied weather packets stored in our database for station/object JF2ZGN-13. If no packets are shown the sender has not sent any weather packets the latest 10 day(s).
| Time | Temp. | Humidity | Pressure | Rain* | Wind** | Luminosity | Snow |
|---|---|---|---|---|---|---|---|
| 1777636349 | 7.22° C | 72% | 886.8 hPa | 120.4 mm | - | - | - |
| 1777635748 | 7.22° C | 77% | 886.9 hPa | 120.4 mm | - | - | - |
| 1777635148 | 7.78° C | 75% | 886.9 hPa | 120.4 mm | - | - | - |
| 1777634548 | 7.78° C | 75% | 886.9 hPa | 120.4 mm | - | - | - |
| 1777633947 | 7.78° C | 75% | 886.7 hPa | 120.4 mm | - | - | - |
| 1777633346 | 7.78° C | 77% | 886.6 hPa | 120.4 mm | - | - | - |
| 1777632746 | 7.78° C | 78% | 886.8 hPa | 120.4 mm | - | - | - |
| 1777632145 | 7.78° C | 72% | 886.8 hPa | 120.4 mm | - | - | - |
| 1777631545 | 8.33° C | 74% | 886.8 hPa | 120.4 mm | - | - | - |
| 1777630945 | 8.33° C | 74% | 886.7 hPa | 120.4 mm | - | - | - |
| 1777630344 | 8.33° C | 68% | 887.1 hPa | 120.4 mm | - | - | - |
| 1777629743 | 8.33° C | 73% | 887.4 hPa | 120.4 mm | - | - | - |
| 1777627942 | 7.78° C | 32% | 888.4 hPa | 120.4 mm | - | - | - |
| 1777627341 | 8.33° C | 74% | 888.2 hPa | 120.4 mm | - | - | - |
| 1777626741 | 8.33° C | 79% | 888.3 hPa | 120.4 mm | - | - | - |
| 1777626141 | 8.89° C | 83% | 888.8 hPa | 120.4 mm | - | - | - |
| 1777625540 | 9.44° C | 83% | 888.8 hPa | 120.4 mm | - | - | - |
| 1777624939 | 10° C | 82% | 888.6 hPa | 120.4 mm | - | - | - |
| 1777624339 | 10° C | 80% | 888.7 hPa | 120.4 mm | - | - | - |
| 1777623739 | 10° C | 78% | 888.5 hPa | 120.4 mm | - | - | - |
| 1777623138 | 10° C | 78% | 888.8 hPa | 120.4 mm | - | - | - |
| 1777622537 | 10.56° C | 74% | 888.5 hPa | 120.4 mm | - | - | - |
| 1777621937 | 10.56° C | 76% | 889 hPa | 120.4 mm | - | - | - |
| 1777620737 | 11.11° C | 75% | 889 hPa | 120.4 mm | - | - | - |
| 1777620136 | 11.67° C | 76% | 889.3 hPa | 120.4 mm | - | - | - |
* Rain since midnight (hover to see other rain measurements)
** Current wind speed in m/s (hover to see current wind gust speed)